createdAt,value
2023-03-12T00:02:09.845Z,100735.75
2023-03-12T00:04:36.575Z,100739.25
2023-03-12T00:07:06.549Z,100724.00
2023-03-12T00:09:38.621Z,100729.56
2023-03-12T00:12:06.449Z,100723.19
2023-03-12T00:14:33.637Z,100725.91
2023-03-12T00:17:00.411Z,100730.69
2023-03-12T00:19:27.640Z,100729.56
2023-03-12T00:21:54.496Z,100728.03
2023-03-12T00:24:21.223Z,100737.88
2023-03-12T00:26:48.032Z,100733.50
2023-03-12T00:29:14.777Z,100733.25
2023-03-12T00:31:41.614Z,100736.25
2023-03-12T00:34:09.719Z,100733.66
2023-03-12T00:36:36.439Z,100737.25
2023-03-12T00:39:03.865Z,100739.19
2023-03-12T00:41:30.602Z,100733.84
2023-03-12T00:43:57.463Z,100739.19
2023-03-12T00:46:24.536Z,100733.03
2023-03-12T00:48:51.718Z,100733.22
2023-03-12T00:51:19.137Z,100746.53
2023-03-12T00:53:45.879Z,100722.53
2023-03-12T00:56:12.739Z,100718.97
2023-03-12T00:58:39.561Z,100713.78
2023-03-12T01:01:06.336Z,100717.28
2023-03-12T01:03:33.129Z,100713.81
2023-03-12T01:06:00.330Z,100714.47
2023-03-12T01:08:27.202Z,100713.63
2023-03-12T01:10:53.984Z,100720.97
2023-03-12T01:13:20.906Z,100708.59
2023-03-12T01:15:47.535Z,100718.47
2023-03-12T01:18:14.523Z,100716.69
2023-03-12T01:20:41.564Z,100715.75
2023-03-12T01:23:08.848Z,100714.75
2023-03-12T01:25:36.986Z,100717.63
2023-03-12T01:28:04.574Z,100722.03
2023-03-12T01:30:31.624Z,100723.75
2023-03-12T01:32:58.682Z,100721.13
2023-03-12T01:35:25.493Z,100721.19
2023-03-12T01:37:53.061Z,100721.19
2023-03-12T01:40:28.908Z,100727.66
2023-03-12T01:42:57.104Z,100721.41
2023-03-12T01:46:01.259Z,100714.47
2023-03-12T01:48:39.113Z,100723.22
2023-03-12T01:51:08.669Z,100718.09
2023-03-12T01:53:35.641Z,100725.25
2023-03-12T01:56:02.803Z,100727.94
2023-03-12T01:58:32.690Z,100719.28
2023-03-12T02:01:00.874Z,100722.09
2023-03-12T02:03:29.886Z,100726.72
2023-03-12T02:06:03.155Z,100726.06
2023-03-12T02:08:30.456Z,100730.66
2023-03-12T02:10:57.176Z,100725.41
2023-03-12T02:13:24.029Z,100734.44
2023-03-12T02:15:50.882Z,100734.63
2023-03-12T02:18:19.189Z,100738.44
2023-03-12T02:21:12.444Z,100742.94
2023-03-12T02:23:57.187Z,100740.47
2023-03-12T02:26:25.300Z,100737.69
2023-03-12T02:28:54.480Z,100736.88
2023-03-12T02:31:25.856Z,100737.03
2023-03-12T02:33:53.256Z,100733.53
2023-03-12T02:36:20.781Z,100736.38
2023-03-12T02:38:52.525Z,100743.75
2023-03-12T02:41:39.781Z,100746.38
2023-03-12T02:44:20.667Z,100747.44
2023-03-12T02:46:50.102Z,100750.50
2023-03-12T02:49:19.135Z,100752.16
2023-03-12T02:51:47.340Z,100747.75
2023-03-12T02:54:17.500Z,100755.84
2023-03-12T02:56:44.356Z,100743.38
2023-03-12T02:59:13.285Z,100752.25
2023-03-12T03:01:40.443Z,100751.66
2023-03-12T03:04:08.929Z,100760.38
2023-03-12T03:06:38.963Z,100757.88
2023-03-12T03:09:06.112Z,100756.28
2023-03-12T03:11:33.045Z,100749.13
2023-03-12T03:13:59.616Z,100753.59
2023-03-12T03:16:26.320Z,100752.91
2023-03-12T03:18:53.050Z,100748.31
2023-03-12T03:21:20.405Z,100755.56
2023-03-12T03:23:49.302Z,100750.88
2023-03-12T03:26:18.722Z,100751.44
2023-03-12T03:28:45.464Z,100753.25
2023-03-12T03:31:12.744Z,100762.00
2023-03-12T03:33:40.079Z,100761.06
2023-03-12T03:36:09.618Z,100759.22
2023-03-12T03:38:36.989Z,100755.44
2023-03-12T03:41:04.156Z,100759.69
2023-03-12T03:43:30.956Z,100751.44
2023-03-12T03:46:03.939Z,100759.69
2023-03-12T03:48:31.412Z,100759.75
2023-03-12T03:51:02.886Z,100752.81
2023-03-12T03:53:30.218Z,100759.06
2023-03-12T03:55:57.037Z,100756.09
2023-03-12T03:58:24.127Z,100762.28
2023-03-12T04:00:50.909Z,100759.75
2023-03-12T04:03:17.669Z,100753.19
2023-03-12T04:05:45.343Z,100754.09
2023-03-12T04:08:13.730Z,100757.75
2023-03-12T04:10:41.109Z,100759.50
2023-03-12T04:13:07.839Z,100752.44
2023-03-12T04:15:34.628Z,100750.09
2023-03-12T04:18:01.408Z,100756.59
2023-03-12T04:20:28.146Z,100751.22
2023-03-12T04:22:55.052Z,100747.06
2023-03-12T04:25:21.805Z,100747.53
2023-03-12T04:27:48.475Z,100754.06
2023-03-12T04:30:15.295Z,100746.53
2023-03-12T04:32:42.059Z,100747.81
2023-03-12T04:35:08.879Z,100755.56
2023-03-12T04:37:35.589Z,100757.63
2023-03-12T04:40:07.445Z,100750.78
2023-03-12T04:42:35.477Z,100748.13
2023-03-12T04:45:03.525Z,100742.91
2023-03-12T04:47:31.393Z,100741.13
2023-03-12T04:49:58.050Z,100742.03
2023-03-12T04:52:25.187Z,100746.38
2023-03-12T04:54:51.869Z,100745.69
2023-03-12T04:57:18.954Z,100744.97
2023-03-12T04:59:45.827Z,100744.16
2023-03-12T05:02:12.592Z,100747.59
2023-03-12T05:04:39.277Z,100738.78
2023-03-12T05:07:05.977Z,100743.19
2023-03-12T05:09:32.746Z,100746.84
2023-03-12T05:11:59.442Z,100748.66
2023-03-12T05:14:26.339Z,100749.56
2023-03-12T05:16:53.328Z,100743.97
2023-03-12T05:19:20.069Z,100749.28
2023-03-12T05:21:46.991Z,100749.97
2023-03-12T05:24:13.629Z,100758.81
2023-03-12T05:26:40.338Z,100768.59
2023-03-12T05:29:07.673Z,100766.03
2023-03-12T05:31:35.530Z,100764.28
2023-03-12T05:34:03.567Z,100763.34
2023-03-12T05:36:30.380Z,100770.41
2023-03-12T05:38:57.277Z,100763.19
2023-03-12T05:41:27.760Z,100771.88
2023-03-12T05:43:56.294Z,100773.63
2023-03-12T05:46:24.455Z,100776.88
2023-03-12T05:48:51.724Z,100767.91
2023-03-12T05:51:18.633Z,100766.91
2023-03-12T05:53:45.398Z,100774.06
2023-03-12T05:56:15.611Z,100770.56
2023-03-12T05:58:43.255Z,100773.22
2023-03-12T06:01:22.331Z,100768.81
2023-03-12T06:03:49.482Z,100774.56
2023-03-12T06:06:16.935Z,100758.00
2023-03-12T06:08:44.201Z,100752.50
2023-03-12T06:11:11.496Z,100742.16
2023-03-12T06:13:38.212Z,100741.16
2023-03-12T06:16:16.503Z,100745.56
2023-03-12T06:18:43.243Z,100740.97
2023-03-12T06:21:16.631Z,100736.50
2023-03-12T06:23:47.277Z,100729.97
2023-03-12T06:26:14.762Z,100727.81
2023-03-12T06:28:41.587Z,100719.66
2023-03-12T06:31:09.142Z,100718.06
2023-03-12T06:33:35.979Z,100718.25
2023-03-12T06:36:05.313Z,100709.03
2023-03-12T06:38:32.564Z,100709.38
2023-03-12T06:41:05.384Z,100710.03
2023-03-12T06:43:34.413Z,100714.28
2023-03-12T06:46:02.495Z,100706.00
2023-03-12T06:48:41.344Z,100705.50
2023-03-12T06:51:13.396Z,100704.81
2023-03-12T06:53:42.347Z,100700.34
2023-03-12T06:56:10.225Z,100707.53
2023-03-12T06:58:37.211Z,100703.28
2023-03-12T07:01:04.939Z,100699.19
2023-03-12T07:03:31.968Z,100697.47
2023-03-12T07:05:59.352Z,100693.84
2023-03-12T07:08:29.921Z,100693.03
2023-03-12T07:11:01.147Z,100684.81
2023-03-12T07:13:28.141Z,100693.34
2023-03-12T07:15:54.863Z,100686.72
2023-03-12T07:18:21.667Z,100681.72
2023-03-12T07:20:48.394Z,100677.19
2023-03-12T07:23:15.153Z,100676.25
2023-03-12T07:25:42.948Z,100673.97
2023-03-12T07:28:10.646Z,100669.59
2023-03-12T07:30:39.111Z,100668.56
2023-03-12T07:33:09.110Z,100665.78
2023-03-12T07:35:38.722Z,100676.34
2023-03-12T07:38:06.658Z,100682.00
2023-03-12T07:40:33.518Z,100673.66
2023-03-12T07:43:00.504Z,100678.19
2023-03-12T07:45:27.287Z,100668.63
2023-03-12T07:47:54.060Z,100665.50
2023-03-12T07:50:20.920Z,100672.84
2023-03-12T07:52:48.030Z,100670.53
2023-03-12T07:55:16.451Z,100670.19
2023-03-12T07:57:43.387Z,100671.13
2023-03-12T08:00:10.920Z,100670.69
2023-03-12T08:02:37.849Z,100664.34
2023-03-12T08:05:05.276Z,100664.78
2023-03-12T08:07:34.913Z,100669.78
2023-03-12T08:10:03.055Z,100663.22
2023-03-12T08:12:29.795Z,100657.69
2023-03-12T08:14:56.474Z,100665.59
2023-03-12T08:17:23.456Z,100657.88
2023-03-12T08:19:50.187Z,100665.34
2023-03-12T08:22:17.086Z,100660.63
2023-03-12T08:24:44.136Z,100659.38
2023-03-12T08:27:12.322Z,100654.88
2023-03-12T08:29:39.895Z,100660.47
2023-03-12T08:32:07.362Z,100652.28
2023-03-12T08:34:35.247Z,100648.50
2023-03-12T08:37:02.963Z,100632.91
2023-03-12T08:39:30.225Z,100578.47
2023-03-12T08:41:56.904Z,100566.63
2023-03-12T08:44:24.097Z,100565.25
2023-03-12T08:46:53.061Z,100567.88
2023-03-12T08:49:20.925Z,100556.84
2023-03-12T08:51:47.697Z,100559.41
2023-03-12T08:54:14.375Z,100546.13
2023-03-12T08:56:44.348Z,100540.72
2023-03-12T08:59:13.242Z,100529.97
2023-03-12T09:01:43.444Z,100526.03
2023-03-12T09:04:10.850Z,100516.50
2023-03-12T09:06:38.554Z,100507.81
2023-03-12T09:09:05.917Z,100495.75
2023-03-12T09:11:33.952Z,100497.91
2023-03-12T09:14:46.342Z,100481.44
2023-03-12T09:16:48.770Z,100472.34
2023-03-12T09:19:16.301Z,100470.66
2023-03-12T09:21:43.097Z,100481.16
2023-03-12T09:24:11.251Z,100468.84
2023-03-12T09:26:37.906Z,100473.28
2023-03-12T09:29:04.559Z,100463.69
2023-03-12T09:31:31.708Z,100458.59
2023-03-12T09:34:00.449Z,100441.44
2023-03-12T09:36:27.104Z,100443.69
2023-03-12T09:38:54.839Z,100442.28
2023-03-12T09:41:26.256Z,100454.38
2023-03-12T09:44:07.563Z,100443.31
2023-03-12T09:46:44.101Z,100425.19
2023-03-12T09:49:38.203Z,100417.97
2023-03-12T09:52:22.486Z,100424.59
2023-03-12T09:55:22.107Z,100408.53
2023-03-12T09:57:51.440Z,100403.31
2023-03-12T10:00:23.030Z,100417.03
2023-03-12T10:03:22.481Z,100400.31
2023-03-12T10:06:20.114Z,100404.56
2023-03-12T10:08:53.642Z,100396.53
2023-03-12T10:11:47.704Z,100398.31
2023-03-12T10:14:32.622Z,100389.53
2023-03-12T10:17:14.551Z,100395.16
2023-03-12T10:20:23.619Z,100391.34
2023-03-12T10:22:56.361Z,100387.00
2023-03-12T10:25:35.396Z,100384.94
2023-03-12T10:28:25.753Z,100385.97
2023-03-12T10:30:58.026Z,100393.78
2023-03-12T10:33:38.401Z,100389.84
2023-03-12T10:36:21.230Z,100401.63
2023-03-12T10:38:49.417Z,100406.91
2023-03-12T10:41:23.206Z,100403.69
2023-03-12T10:43:50.156Z,100398.59
2023-03-12T10:46:51.538Z,100381.00
2023-03-12T10:49:23.915Z,100392.84
2023-03-12T10:52:00.702Z,100457.22
2023-03-12T10:54:29.190Z,100464.44
2023-03-12T10:56:55.959Z,100478.81
2023-03-12T10:59:25.700Z,100476.31
2023-03-12T11:01:53.012Z,100492.72
2023-03-12T11:04:31.651Z,100526.56
2023-03-12T11:07:15.747Z,100533.03
2023-03-12T11:09:42.505Z,100577.94
2023-03-12T11:12:30.917Z,100571.31
2023-03-12T11:14:59.040Z,100595.28
2023-03-12T11:17:28.272Z,100589.66
2023-03-12T11:19:55.169Z,100593.69
2023-03-12T11:22:51.205Z,100598.34
2023-03-12T11:25:28.130Z,100613.84
2023-03-12T11:28:03.184Z,100622.63
2023-03-12T11:30:37.087Z,100633.03
2023-03-12T11:33:04.813Z,100633.81
2023-03-12T11:35:42.092Z,100626.44
2023-03-12T11:38:17.870Z,100637.09
2023-03-12T11:41:20.141Z,100642.41
2023-03-12T11:44:05.102Z,100667.16
2023-03-12T11:46:34.644Z,100671.91
2023-03-12T11:49:20.188Z,100659.66
2023-03-12T11:52:10.667Z,100663.69
2023-03-12T11:54:59.705Z,100672.78
2023-03-12T11:58:10.992Z,100697.16
2023-03-12T12:01:09.754Z,100692.19
2023-03-12T12:03:45.813Z,100683.06
2023-03-12T12:06:40.449Z,100681.28
2023-03-12T12:09:16.119Z,100696.00
2023-03-12T12:11:45.715Z,100694.63
2023-03-12T12:14:50.918Z,100710.41
2023-03-12T12:17:17.486Z,100714.50
2023-03-12T12:19:53.471Z,100720.44
2023-03-12T12:22:46.296Z,100714.56
2023-03-12T12:25:21.592Z,100714.91
2023-03-12T12:27:57.930Z,100720.13
2023-03-12T12:30:51.685Z,100716.63
2023-03-12T12:33:30.793Z,100716.66
2023-03-12T12:35:57.579Z,100713.16
2023-03-12T12:38:33.174Z,100727.94
2023-03-12T12:41:30.665Z,100727.88
2023-03-12T12:44:13.988Z,100719.31
2023-03-12T12:46:47.648Z,100714.59
2023-03-12T12:49:34.223Z,100706.56
2023-03-12T12:52:05.270Z,100692.72
2023-03-12T12:54:53.217Z,100697.75
2023-03-12T12:57:29.396Z,100693.25
2023-03-12T13:00:14.628Z,100701.00
2023-03-12T13:02:44.656Z,100703.94
2023-03-12T13:05:26.247Z,100694.47
2023-03-12T13:07:53.315Z,100693.03
2023-03-12T13:10:57.447Z,100676.91
2023-03-12T13:13:27.200Z,100676.75
2023-03-12T13:16:29.054Z,100676.44
2023-03-12T13:19:01.400Z,100672.03
2023-03-12T13:21:36.218Z,100668.59
2023-03-12T13:24:18.541Z,100654.69
2023-03-12T13:27:17.991Z,100641.50
2023-03-12T13:29:44.791Z,100631.38
2023-03-12T13:32:36.403Z,100620.94
2023-03-12T13:35:18.307Z,100631.97
2023-03-12T13:37:54.006Z,100621.22
2023-03-12T13:40:29.494Z,100605.44
2023-03-12T13:43:08.272Z,100604.72
2023-03-12T13:46:03.919Z,100607.53
2023-03-12T13:48:34.573Z,100595.16
2023-03-12T13:51:19.871Z,100604.34
2023-03-12T13:53:55.656Z,100608.34
2023-03-12T13:56:29.206Z,100614.31
2023-03-12T13:59:07.510Z,100639.88
2023-03-12T14:01:49.819Z,100646.22
2023-03-12T14:04:23.699Z,100638.66
2023-03-12T14:07:29.177Z,100629.81
2023-03-12T14:10:53.638Z,100632.41
2023-03-12T14:13:35.662Z,100624.91
2023-03-12T14:16:19.370Z,100624.06
2023-03-12T14:18:47.302Z,100631.19
2023-03-12T14:21:16.603Z,100622.19
2023-03-12T14:23:52.807Z,100619.34
2023-03-12T14:26:31.527Z,100612.88
2023-03-12T14:29:20.725Z,100605.28
2023-03-12T14:31:55.026Z,100601.50
2023-03-12T14:34:24.097Z,100606.13
2023-03-12T14:37:00.964Z,100611.06
2023-03-12T14:39:43.412Z,100622.31
2023-03-12T14:42:10.652Z,100614.69
2023-03-12T14:44:39.623Z,100618.13
2023-03-12T14:47:11.850Z,100619.00
2023-03-12T14:49:46.672Z,100634.91
2023-03-12T14:52:15.156Z,100638.06
2023-03-12T14:54:53.831Z,100630.81
2023-03-12T14:57:20.893Z,100633.78
2023-03-12T15:00:01.505Z,100632.41
2023-03-12T15:02:30.805Z,100626.88
2023-03-12T15:05:00.685Z,100635.78
2023-03-12T15:07:33.130Z,100627.88
2023-03-12T15:10:00.403Z,100612.41
2023-03-12T15:12:32.646Z,100616.34
2023-03-12T15:15:08.319Z,100623.06
2023-03-12T15:17:35.925Z,100622.66
2023-03-12T15:20:09.466Z,100614.53
2023-03-12T15:22:38.339Z,100609.97
2023-03-12T15:25:25.315Z,100612.41
2023-03-12T15:28:15.118Z,100613.72
2023-03-12T15:30:44.120Z,100596.66
2023-03-12T15:33:17.835Z,100588.94
2023-03-12T15:36:07.547Z,100578.28
2023-03-12T15:38:38.305Z,100584.25
2023-03-12T15:41:09.929Z,100588.34
2023-03-12T15:43:37.699Z,100563.34
2023-03-12T15:46:06.174Z,100578.16
2023-03-12T15:48:41.266Z,100558.47
2023-03-12T15:51:26.142Z,100551.63
2023-03-12T15:54:00.949Z,100548.63
2023-03-12T15:56:30.378Z,100528.66
2023-03-12T15:59:04.274Z,100514.81
2023-03-12T16:01:44.491Z,100508.38
2023-03-12T16:04:11.467Z,100488.00
2023-03-12T16:06:38.187Z,100496.31
2023-03-12T16:09:06.168Z,100482.31
2023-03-12T16:11:35.690Z,100469.66
2023-03-12T16:14:17.072Z,100463.44
2023-03-12T16:16:43.931Z,100472.81
2023-03-12T16:19:22.461Z,100456.81
2023-03-12T16:21:50.046Z,100435.53
2023-03-12T16:24:17.031Z,100437.47
2023-03-12T16:26:49.552Z,100415.16
2023-03-12T16:29:18.497Z,100408.63
2023-03-12T16:31:50.999Z,100399.38
2023-03-12T16:34:17.780Z,100403.03
2023-03-12T16:36:44.390Z,100392.41
2023-03-12T16:39:11.418Z,100396.03
2023-03-12T16:41:38.515Z,100374.91
2023-03-12T16:44:08.163Z,100366.88
2023-03-12T16:46:34.994Z,100361.50
2023-03-12T16:49:02.029Z,100358.63
2023-03-12T16:51:28.724Z,100356.44
2023-03-12T16:54:08.484Z,100351.59
2023-03-12T16:56:41.120Z,100337.84
2023-03-12T16:59:15.992Z,100323.63
2023-03-12T17:01:42.760Z,100308.16
2023-03-12T17:04:12.566Z,100297.66
2023-03-12T17:06:40.451Z,100297.47
2023-03-12T17:09:08.470Z,100291.16
2023-03-12T17:11:38.014Z,100284.13
2023-03-12T17:14:16.515Z,100279.19
2023-03-12T17:16:43.194Z,100279.91
2023-03-12T17:19:09.865Z,100270.69
2023-03-12T17:21:37.770Z,100264.44
2023-03-12T17:24:04.749Z,100263.66
2023-03-12T17:26:31.510Z,100235.19
2023-03-12T17:28:58.251Z,100228.84
2023-03-12T17:31:25.074Z,100214.63
2023-03-12T17:33:51.889Z,100217.84
2023-03-12T17:36:18.654Z,100204.56
2023-03-12T17:38:45.346Z,100194.56
2023-03-12T17:41:25.618Z,100145.81
2023-03-12T17:43:53.556Z,100142.69
2023-03-12T17:46:20.289Z,100143.53
2023-03-12T17:48:47.071Z,100135.34
2023-03-12T17:51:13.850Z,100124.72
2023-03-12T17:53:41.988Z,100112.38
2023-03-12T17:56:09.288Z,100110.91
2023-03-12T17:58:36.014Z,100104.19
2023-03-12T18:01:02.682Z,100102.31
2023-03-12T18:03:29.483Z,100094.13
2023-03-12T18:05:56.409Z,100119.25
2023-03-12T18:08:23.122Z,100105.56
2023-03-12T18:10:49.962Z,100088.97
2023-03-12T18:13:16.722Z,100083.50
2023-03-12T18:15:43.470Z,100068.22
2023-03-12T18:18:10.146Z,100069.94
2023-03-12T18:20:39.506Z,100069.09
2023-03-12T18:23:06.999Z,100060.13
2023-03-12T18:25:33.694Z,100047.34
2023-03-12T18:28:00.559Z,100050.97
2023-03-12T18:30:28.505Z,100045.44
2023-03-12T18:32:55.309Z,100025.50
2023-03-12T18:35:22.807Z,100017.84
2023-03-12T18:37:52.438Z,100000.88
2023-03-12T18:40:19.878Z,100019.28
2023-03-12T18:42:46.966Z,99992.59
2023-03-12T18:45:13.657Z,100000.66
2023-03-12T18:47:40.428Z,99999.63
2023-03-12T18:50:08.331Z,99996.72
2023-03-12T18:52:35.723Z,99972.78
2023-03-12T18:55:02.893Z,99955.56
2023-03-12T18:57:29.688Z,99949.84
2023-03-12T18:59:57.247Z,99942.22
2023-03-12T19:02:24.149Z,99944.41
2023-03-12T19:04:51.402Z,99939.56
2023-03-12T19:07:19.786Z,99877.88
2023-03-12T19:09:47.094Z,99866.56
2023-03-12T19:12:14.737Z,99860.34
2023-03-12T19:14:41.593Z,99856.72
2023-03-12T19:17:08.538Z,99831.59
2023-03-12T19:19:35.316Z,99843.97
2023-03-12T19:22:02.192Z,99827.00
2023-03-12T19:24:29.085Z,99817.41
2023-03-12T19:26:56.296Z,99818.44
2023-03-12T19:29:24.650Z,99743.66
2023-03-12T19:31:51.342Z,99727.38
2023-03-12T19:34:19.278Z,99716.66
2023-03-12T19:36:45.948Z,99698.56
2023-03-12T19:39:21.120Z,99685.53
2023-03-12T19:41:49.595Z,99683.44
2023-03-12T19:44:16.502Z,99689.75
2023-03-12T19:46:43.507Z,99672.13
2023-03-12T19:49:10.772Z,99663.19
2023-03-12T19:51:42.189Z,99649.78
2023-03-12T19:54:10.793Z,99629.75
2023-03-12T19:56:38.112Z,99624.41
2023-03-12T19:59:05.192Z,99607.91
2023-03-12T20:01:32.559Z,99601.38
2023-03-12T20:03:59.630Z,99592.56
2023-03-12T20:06:27.444Z,99576.03
2023-03-12T20:08:59.161Z,99559.28
2023-03-12T20:11:26.134Z,99558.50
2023-03-12T20:13:53.434Z,99537.41
2023-03-12T20:16:21.601Z,99536.09
2023-03-12T20:18:48.852Z,99522.78
2023-03-12T20:21:16.006Z,99493.94
2023-03-12T20:23:49.225Z,99498.97
2023-03-12T20:26:16.400Z,99487.31
2023-03-12T20:28:43.496Z,99478.25
2023-03-12T20:31:12.695Z,99447.56
2023-03-12T20:33:41.367Z,99424.44
2023-03-12T20:36:10.336Z,99414.47
2023-03-12T20:38:37.655Z,99412.09
2023-03-12T20:41:05.590Z,99359.34
2023-03-12T20:43:32.897Z,99341.50
2023-03-12T20:45:59.985Z,99366.88
2023-03-12T20:48:27.108Z,99375.03
2023-03-12T20:50:54.080Z,99355.25
2023-03-12T20:53:21.084Z,99336.63
2023-03-12T20:55:49.092Z,99303.75
2023-03-12T20:58:16.053Z,99308.94
2023-03-12T21:00:44.421Z,99296.47
2023-03-12T21:03:15.853Z,99294.06
2023-03-12T21:05:43.198Z,99277.69
2023-03-12T21:08:10.171Z,99278.66
2023-03-12T21:10:38.581Z,99249.03
2023-03-12T21:13:05.395Z,99243.75
2023-03-12T21:15:32.311Z,99230.94
2023-03-12T21:17:59.310Z,99225.31
2023-03-12T21:20:26.076Z,99212.09
2023-03-12T21:22:52.907Z,99206.47
2023-03-12T21:25:19.801Z,99197.72
2023-03-12T21:27:51.067Z,99186.69
2023-03-12T21:30:19.229Z,99181.94
2023-03-12T21:32:45.895Z,99170.19
2023-03-12T21:35:12.568Z,99170.44
2023-03-12T21:37:39.589Z,99157.72
2023-03-12T21:40:07.869Z,99137.53
2023-03-12T21:42:34.713Z,99138.88
2023-03-12T21:45:01.369Z,99126.50
2023-03-12T21:47:28.126Z,99105.19
2023-03-12T21:49:58.764Z,99107.25
2023-03-12T21:52:25.424Z,99087.28
2023-03-12T21:54:52.074Z,99074.19
2023-03-12T21:57:18.674Z,99077.59
2023-03-12T21:59:45.324Z,98952.03
2023-03-12T22:02:13.788Z,98950.25
2023-03-12T22:04:40.507Z,98948.88
2023-03-12T22:07:07.789Z,98942.72
2023-03-12T22:09:34.615Z,98915.78
2023-03-12T22:12:01.827Z,98916.38
2023-03-12T22:14:28.902Z,98892.78
2023-03-12T22:16:55.537Z,98865.66
2023-03-12T22:19:22.278Z,98868.88
2023-03-12T22:21:48.981Z,98851.47
2023-03-12T22:24:16.031Z,98844.09
2023-03-12T22:26:42.811Z,98835.63
2023-03-12T22:29:09.720Z,98823.97
2023-03-12T22:31:36.528Z,98822.69
2023-03-12T22:34:03.325Z,98798.44
2023-03-12T22:36:30.044Z,98796.09
2023-03-12T22:38:57.702Z,98790.41
2023-03-12T22:41:26.702Z,98787.13
2023-03-12T22:43:55.962Z,98781.00
2023-03-12T22:46:25.022Z,98772.69
2023-03-12T22:48:54.215Z,98768.72
2023-03-12T22:51:20.957Z,98765.06
2023-03-12T22:53:47.609Z,98768.44
2023-03-12T22:56:14.748Z,98754.16
2023-03-12T22:58:41.532Z,98750.72
2023-03-12T23:01:14.121Z,98747.44
2023-03-12T23:03:42.903Z,98734.84
2023-03-12T23:06:20.733Z,98728.72
2023-03-12T23:08:48.129Z,98738.97
2023-03-12T23:11:16.774Z,98736.97
2023-03-12T23:13:44.716Z,98746.16
2023-03-12T23:16:14.784Z,98740.22
2023-03-12T23:18:42.902Z,98734.44
2023-03-12T23:21:12.469Z,98733.72
2023-03-12T23:23:41.203Z,98729.59
2023-03-12T23:26:08.034Z,98722.22
2023-03-12T23:28:34.718Z,98730.03
2023-03-12T23:31:04.897Z,98726.91
2023-03-12T23:33:33.235Z,98724.66
2023-03-12T23:36:02.304Z,98713.28
2023-03-12T23:38:29.748Z,98708.34
2023-03-12T23:41:08.838Z,98707.19
2023-03-12T23:43:35.566Z,98715.44
2023-03-12T23:46:04.622Z,98716.97
2023-03-12T23:48:32.812Z,98708.34
2023-03-12T23:51:08.034Z,98703.41
2023-03-12T23:53:35.857Z,98699.69
2023-03-12T23:56:04.746Z,98702.25
2023-03-12T23:58:31.520Z,98697.25
